createdAt,value
2023-03-15T00:01:47.467Z,3.79
2023-03-15T00:06:06.834Z,3.87
2023-03-15T00:10:19.351Z,3.98
2023-03-15T00:14:32.462Z,4.30
2023-03-15T00:18:47.795Z,4.42
2023-03-15T00:23:02.443Z,4.11
2023-03-15T00:27:14.917Z,3.58
2023-03-15T00:31:27.432Z,3.33
2023-03-15T00:35:42.730Z,3.17
2023-03-15T00:39:56.479Z,3.00
2023-03-15T00:44:08.990Z,2.60
2023-03-15T00:48:31.759Z,2.31
2023-03-15T00:52:44.370Z,2.29
2023-03-15T00:56:56.880Z,1.97
2023-03-15T01:01:23.195Z,1.70
2023-03-15T01:05:37.187Z,1.33
2023-03-15T01:09:49.661Z,1.26
2023-03-15T01:14:04.374Z,1.36
2023-03-15T01:18:16.810Z,1.33
2023-03-15T01:22:29.249Z,1.18
2023-03-15T01:26:42.700Z,1.22
2023-03-15T01:31:05.625Z,1.40
2023-03-15T01:35:18.327Z,1.43
2023-03-15T01:39:31.889Z,1.44
2023-03-15T01:43:47.950Z,1.40
2023-03-15T01:48:00.494Z,1.34
2023-03-15T01:52:17.164Z,1.45
2023-03-15T01:56:32.511Z,1.49
2023-03-15T02:00:55.361Z,1.43
2023-03-15T02:05:12.806Z,1.61
2023-03-15T02:09:33.495Z,1.69
2023-03-15T02:13:49.252Z,1.59
2023-03-15T02:18:01.674Z,1.64
2023-03-15T02:22:31.937Z,1.64
2023-03-15T02:26:55.514Z,1.66
2023-03-15T02:31:08.080Z,1.85
2023-03-15T02:35:32.494Z,1.74
2023-03-15T02:39:44.984Z,1.62
2023-03-15T02:44:27.629Z,1.43
2023-03-15T02:48:42.108Z,1.24
2023-03-15T02:52:54.567Z,1.16
2023-03-15T02:57:07.371Z,1.12
2023-03-15T03:01:20.726Z,1.21
2023-03-15T03:05:33.263Z,1.21
2023-03-15T03:09:46.182Z,1.00
2023-03-15T03:13:58.688Z,1.08
2023-03-15T03:18:11.090Z,1.04
2023-03-15T03:22:26.756Z,1.10
2023-03-15T03:26:39.258Z,1.02
2023-03-15T03:30:53.058Z,0.97
2023-03-15T03:35:06.007Z,0.96
2023-03-15T03:39:18.500Z,1.00
2023-03-15T03:43:31.035Z,0.98
2023-03-15T03:47:43.533Z,1.08
2023-03-15T03:51:56.019Z,1.17
2023-03-15T03:56:09.272Z,1.07
2023-03-15T04:00:31.726Z,1.06
2023-03-15T04:04:44.240Z,1.01
2023-03-15T04:08:56.725Z,0.98
2023-03-15T04:13:09.162Z,0.94
2023-03-15T04:17:21.623Z,0.87
2023-03-15T04:21:34.511Z,0.82
2023-03-15T04:25:53.277Z,0.92
2023-03-15T04:30:06.365Z,0.87
2023-03-15T04:34:18.793Z,0.83
2023-03-15T04:38:33.069Z,0.85
2023-03-15T04:42:45.485Z,0.73
2023-03-15T04:46:58.909Z,0.72
2023-03-15T04:51:11.457Z,0.80
2023-03-15T04:55:24.159Z,0.87
2023-03-15T04:59:36.584Z,0.83
2023-03-15T05:03:49.026Z,0.88
2023-03-15T05:08:02.340Z,0.89
2023-03-15T05:12:14.805Z,0.91
2023-03-15T05:16:27.813Z,0.78
2023-03-15T05:20:40.260Z,0.76
2023-03-15T05:24:54.450Z,0.78
2023-03-15T05:29:06.853Z,0.86
2023-03-15T05:33:20.710Z,0.92
2023-03-15T05:37:40.252Z,0.74
2023-03-15T05:41:52.872Z,0.85
2023-03-15T05:46:05.643Z,0.89
2023-03-15T05:50:18.516Z,0.98
2023-03-15T05:54:30.979Z,0.99
2023-03-15T05:58:43.470Z,1.11
2023-03-15T06:02:55.934Z,0.81
2023-03-15T06:07:08.523Z,0.89
2023-03-15T06:11:30.931Z,0.98
2023-03-15T06:15:43.554Z,1.09
2023-03-15T06:19:56.000Z,0.77
2023-03-15T06:24:08.938Z,0.84
2023-03-15T06:28:21.475Z,1.00
2023-03-15T06:32:34.003Z,1.07
2023-03-15T06:36:46.602Z,1.12
2023-03-15T06:41:01.932Z,1.02
2023-03-15T06:45:14.580Z,0.98
2023-03-15T06:49:27.403Z,1.03
2023-03-15T06:53:39.892Z,1.22
2023-03-15T06:57:52.352Z,1.20
2023-03-15T07:02:04.979Z,1.14
2023-03-15T07:06:17.517Z,1.24
2023-03-15T07:10:30.242Z,1.38
2023-03-15T07:14:43.342Z,1.37
2023-03-15T07:18:57.392Z,1.62
2023-03-15T07:23:09.822Z,1.51
2023-03-15T07:27:22.253Z,1.74
2023-03-15T07:31:36.088Z,1.83
2023-03-15T07:35:50.955Z,1.74
2023-03-15T07:40:10.362Z,1.90
2023-03-15T07:44:22.935Z,1.90
2023-03-15T07:48:35.567Z,1.97
2023-03-15T07:52:48.045Z,1.99
2023-03-15T07:57:00.594Z,2.19
2023-03-15T08:01:13.073Z,2.49
2023-03-15T08:05:28.945Z,2.54
2023-03-15T08:09:47.067Z,2.66
2023-03-15T08:13:59.512Z,3.05
2023-03-15T08:18:12.418Z,2.81
2023-03-15T08:22:36.481Z,2.69
2023-03-15T08:26:49.908Z,2.69
2023-03-15T08:31:02.454Z,2.76
2023-03-15T08:35:17.070Z,3.05
2023-03-15T08:39:29.482Z,3.60
2023-03-15T08:43:41.894Z,2.82
2023-03-15T08:47:59.339Z,3.37
2023-03-15T08:52:12.416Z,3.34
2023-03-15T08:56:25.110Z,3.21
2023-03-15T09:00:38.411Z,3.56
2023-03-15T09:04:53.305Z,3.15
2023-03-15T09:09:05.940Z,3.66
2023-03-15T09:13:18.437Z,4.60
2023-03-15T09:17:30.950Z,4.54
2023-03-15T09:21:45.854Z,4.42
2023-03-15T09:25:58.510Z,3.73
2023-03-15T09:30:12.042Z,3.50
2023-03-15T09:34:25.371Z,3.96
2023-03-15T09:38:40.032Z,4.29
2023-03-15T09:43:20.885Z,4.44
2023-03-15T09:47:45.596Z,3.70
2023-03-15T09:52:13.853Z,3.63
2023-03-15T09:56:37.410Z,3.48
2023-03-15T10:00:55.195Z,3.68
2023-03-15T10:05:20.920Z,3.57
2023-03-15T10:09:35.667Z,3.97
2023-03-15T10:14:29.008Z,4.28
2023-03-15T10:18:59.556Z,4.96
2023-03-15T10:23:56.294Z,5.81
2023-03-15T10:28:08.707Z,5.99
2023-03-15T10:32:27.103Z,5.94
2023-03-15T10:36:50.678Z,6.18
2023-03-15T10:41:07.869Z,6.27
2023-03-15T10:45:24.864Z,7.47
2023-03-15T10:49:42.686Z,6.53
2023-03-15T10:54:18.818Z,6.59
2023-03-15T10:58:46.714Z,7.48
2023-03-15T11:03:20.273Z,7.30
2023-03-15T11:07:36.535Z,6.88
2023-03-15T11:11:52.959Z,6.89
2023-03-15T11:16:09.093Z,7.19
2023-03-15T11:20:32.542Z,7.10
2023-03-15T11:24:57.299Z,7.81
2023-03-15T11:29:38.317Z,6.68
2023-03-15T11:34:17.241Z,7.76
2023-03-15T11:38:37.599Z,8.85
2023-03-15T11:43:01.617Z,8.49
2023-03-15T11:47:39.633Z,7.85
2023-03-15T11:51:56.294Z,8.71
2023-03-15T11:56:30.213Z,8.70
2023-03-15T12:00:52.906Z,9.73
2023-03-15T12:05:17.664Z,9.39
2023-03-15T12:09:37.098Z,8.78
2023-03-15T12:14:01.674Z,9.71
2023-03-15T12:18:21.491Z,9.85
2023-03-15T12:22:34.765Z,9.95
2023-03-15T12:27:16.599Z,9.07
2023-03-15T12:31:57.547Z,10.06
2023-03-15T12:36:19.681Z,8.52
2023-03-15T12:40:53.562Z,7.88
2023-03-15T12:45:21.269Z,8.30
2023-03-15T12:49:34.930Z,7.83
2023-03-15T12:53:51.233Z,7.74
2023-03-15T12:58:05.435Z,7.20
2023-03-15T13:03:09.953Z,7.22
2023-03-15T13:07:54.995Z,6.84
2023-03-15T13:12:22.988Z,7.51
2023-03-15T13:16:55.881Z,7.47
2023-03-15T13:21:31.005Z,6.74
2023-03-15T13:26:08.367Z,6.86
2023-03-15T13:30:47.998Z,7.30
2023-03-15T13:35:14.520Z,8.24
2023-03-15T13:39:37.001Z,7.98
2023-03-15T13:43:52.181Z,7.66
2023-03-15T13:48:05.946Z,7.24
2023-03-15T13:52:28.431Z,7.28
2023-03-15T13:56:59.169Z,7.41
2023-03-15T14:01:15.187Z,7.95
2023-03-15T14:05:33.810Z,8.16
2023-03-15T14:09:46.584Z,7.39
2023-03-15T14:14:03.316Z,7.45
2023-03-15T14:18:25.683Z,7.53
2023-03-15T14:22:43.162Z,7.19
2023-03-15T14:27:00.794Z,7.49
2023-03-15T14:31:25.678Z,7.02
2023-03-15T14:35:38.165Z,6.80
2023-03-15T14:39:53.288Z,7.08
2023-03-15T14:44:05.914Z,6.55
2023-03-15T14:48:29.986Z,6.45
2023-03-15T14:52:44.214Z,6.30
2023-03-15T14:56:56.849Z,6.58
2023-03-15T15:01:17.420Z,6.57
2023-03-15T15:05:36.069Z,5.95
2023-03-15T15:09:50.981Z,5.22
2023-03-15T15:14:03.502Z,5.07
2023-03-15T15:18:16.811Z,4.98
2023-03-15T15:22:29.439Z,5.63
2023-03-15T15:26:42.964Z,5.57
2023-03-15T15:30:55.552Z,5.54
2023-03-15T15:35:20.618Z,5.52
2023-03-15T15:39:33.183Z,4.99
2023-03-15T15:43:45.723Z,5.01
2023-03-15T15:48:08.465Z,5.31
2023-03-15T15:52:21.030Z,5.27
2023-03-15T15:56:40.974Z,5.39
2023-03-15T16:00:53.447Z,4.96
2023-03-15T16:05:09.916Z,4.74
2023-03-15T16:09:25.627Z,4.53
2023-03-15T16:13:38.786Z,4.61
2023-03-15T16:17:51.316Z,4.46
2023-03-15T16:22:04.286Z,4.24
2023-03-15T16:26:18.028Z,4.29
2023-03-15T16:30:32.887Z,4.23
2023-03-15T16:34:55.320Z,4.10
2023-03-15T16:39:08.056Z,4.15
2023-03-15T16:43:21.242Z,4.04
2023-03-15T16:47:33.695Z,4.05
2023-03-15T16:51:50.541Z,4.07
2023-03-15T16:56:05.940Z,4.04
2023-03-15T17:00:21.029Z,3.95
2023-03-15T17:04:33.492Z,4.02
2023-03-15T17:08:46.017Z,3.97
2023-03-15T17:13:02.098Z,4.01
2023-03-15T17:17:14.571Z,3.96
2023-03-15T17:21:28.428Z,3.98
2023-03-15T17:25:42.108Z,3.82
2023-03-15T17:29:54.541Z,3.78
2023-03-15T17:34:07.078Z,3.78
2023-03-15T17:38:24.951Z,3.77
2023-03-15T17:42:37.458Z,3.69
2023-03-15T17:46:49.908Z,3.83
2023-03-15T17:51:02.396Z,3.80
2023-03-15T17:55:17.942Z,3.68
2023-03-15T17:59:30.393Z,3.62
2023-03-15T18:03:44.458Z,3.76
2023-03-15T18:07:59.877Z,3.77
2023-03-15T18:12:15.194Z,3.71
2023-03-15T18:16:28.120Z,3.64
2023-03-15T18:20:41.901Z,3.21
2023-03-15T18:24:54.363Z,3.62
2023-03-15T18:29:07.157Z,3.61
2023-03-15T18:33:20.341Z,3.76
2023-03-15T18:37:33.598Z,3.43
2023-03-15T18:41:46.129Z,3.71
2023-03-15T18:45:58.629Z,3.14
2023-03-15T18:50:12.793Z,3.40
2023-03-15T18:54:25.335Z,3.30
2023-03-15T18:58:37.741Z,3.35
2023-03-15T19:02:51.446Z,3.61
2023-03-15T19:07:03.909Z,3.47
2023-03-15T19:11:17.083Z,3.42
2023-03-15T19:15:30.163Z,3.48
2023-03-15T19:19:42.655Z,3.30
2023-03-15T19:23:58.078Z,3.22
2023-03-15T19:28:11.324Z,3.20
2023-03-15T19:32:25.070Z,3.22
2023-03-15T19:36:37.736Z,3.19
2023-03-15T19:41:10.757Z,3.27
2023-03-15T19:45:24.824Z,3.36
2023-03-15T19:49:37.354Z,3.31
2023-03-15T19:53:49.846Z,3.35
2023-03-15T19:58:02.337Z,3.21
2023-03-15T20:02:15.008Z,3.24
2023-03-15T20:06:27.698Z,3.16
2023-03-15T20:10:40.395Z,3.06
2023-03-15T20:14:52.937Z,3.18
2023-03-15T20:19:05.461Z,2.87
2023-03-15T20:23:19.382Z,2.99
2023-03-15T20:27:35.930Z,3.01
2023-03-15T20:31:48.630Z,3.02
2023-03-15T20:36:01.119Z,2.90
2023-03-15T20:40:16.644Z,2.97
2023-03-15T20:44:29.030Z,2.96
2023-03-15T20:48:46.156Z,2.73
2023-03-15T20:52:58.579Z,2.76
2023-03-15T20:57:11.037Z,2.71
2023-03-15T21:01:23.599Z,2.78
2023-03-15T21:05:36.400Z,2.75
2023-03-15T21:09:48.891Z,2.74
2023-03-15T21:14:01.762Z,2.56
2023-03-15T21:18:16.241Z,2.47
2023-03-15T21:22:28.689Z,2.40
2023-03-15T21:26:44.692Z,2.45
2023-03-15T21:31:08.235Z,2.20
2023-03-15T21:35:22.628Z,2.16
2023-03-15T21:39:35.189Z,2.13
2023-03-15T21:43:47.729Z,2.32
2023-03-15T21:48:00.152Z,2.29
2023-03-15T21:52:13.346Z,2.30
2023-03-15T21:56:26.865Z,2.28
2023-03-15T22:00:39.817Z,2.11
2023-03-15T22:04:52.616Z,1.92
2023-03-15T22:09:05.367Z,1.62
2023-03-15T22:13:17.836Z,1.34
2023-03-15T22:17:30.358Z,1.14
2023-03-15T22:21:43.102Z,1.16
2023-03-15T22:25:56.297Z,1.01
2023-03-15T22:30:11.273Z,0.89
2023-03-15T22:34:28.321Z,0.77
2023-03-15T22:38:50.758Z,0.59
2023-03-15T22:43:06.230Z,0.59
2023-03-15T22:47:23.889Z,0.59
2023-03-15T22:51:36.627Z,0.59
2023-03-15T22:55:49.101Z,0.67
2023-03-15T23:00:01.841Z,0.72
2023-03-15T23:04:14.288Z,0.84
2023-03-15T23:08:37.238Z,0.69
2023-03-15T23:12:49.679Z,0.57
2023-03-15T23:17:05.108Z,0.69
2023-03-15T23:21:17.548Z,0.46
2023-03-15T23:25:30.366Z,0.55
2023-03-15T23:29:53.762Z,0.58
2023-03-15T23:34:09.072Z,0.54
2023-03-15T23:38:22.751Z,0.55
2023-03-15T23:42:36.392Z,0.52
2023-03-15T23:46:58.948Z,0.53
2023-03-15T23:51:13.368Z,0.59
2023-03-15T23:55:25.941Z,0.56
2023-03-15T23:59:40.506Z,0.51
